createdAt,value
2022-11-04T00:00:17.349Z,94697.97
2022-11-04T00:05:30.220Z,94707.59
2022-11-04T00:10:47.382Z,94723.06
2022-11-04T00:16:08.456Z,94735.38
2022-11-04T00:21:30.031Z,94745.19
2022-11-04T00:26:50.676Z,94751.13
2022-11-04T00:32:16.720Z,94763.38
2022-11-04T00:37:20.284Z,94757.00
2022-11-04T00:42:23.490Z,94765.78
2022-11-04T00:47:26.773Z,94774.13
2022-11-04T00:52:29.958Z,94780.19
2022-11-04T00:57:33.135Z,94792.94
2022-11-04T01:02:36.386Z,94799.25
2022-11-04T01:07:43.532Z,94815.28
2022-11-04T01:12:47.618Z,94828.84
2022-11-04T01:17:50.932Z,94841.38
2022-11-04T01:22:57.063Z,94847.47
2022-11-04T01:28:00.291Z,94834.47
2022-11-04T01:33:03.422Z,94846.78
2022-11-04T01:38:06.978Z,94847.19
2022-11-04T01:43:10.658Z,94850.78
2022-11-04T01:48:13.928Z,94838.00
2022-11-04T01:53:17.005Z,94821.69
2022-11-04T01:58:20.163Z,94817.25
2022-11-04T02:03:23.213Z,94816.13
2022-11-04T02:08:26.414Z,94817.47
2022-11-04T02:13:29.579Z,94809.47
2022-11-04T02:18:32.704Z,94806.19
2022-11-04T02:23:36.813Z,94809.72
2022-11-04T02:28:40.048Z,94812.84
2022-11-04T02:33:43.408Z,94807.50
2022-11-04T02:38:46.484Z,94818.44
2022-11-04T02:43:49.607Z,94817.91
2022-11-04T02:48:52.671Z,94823.00
2022-11-04T02:54:02.733Z,94829.97
2022-11-04T02:59:05.874Z,94811.22
2022-11-04T03:04:09.058Z,94811.75
2022-11-04T03:09:12.150Z,94807.19
2022-11-04T03:14:15.349Z,94801.84
2022-11-04T03:19:18.969Z,94790.63
2022-11-04T03:24:22.184Z,94804.31
2022-11-04T03:29:25.560Z,94819.34
2022-11-04T03:34:28.676Z,94808.63
2022-11-04T03:39:31.875Z,94804.59
2022-11-04T03:44:35.500Z,94785.09
2022-11-04T03:49:38.575Z,94790.13
2022-11-04T03:54:41.696Z,94793.59
2022-11-04T03:59:44.780Z,94796.56
2022-11-04T04:04:48.226Z,94779.16
2022-11-04T04:09:51.302Z,94787.25
2022-11-04T04:14:54.876Z,94768.59
2022-11-04T04:19:58.099Z,94762.63
2022-11-04T04:25:18.757Z,94772.81
2022-11-04T04:30:22.053Z,94788.03
2022-11-04T04:35:43.395Z,94778.16
2022-11-04T04:41:04.608Z,94768.69
2022-11-04T04:46:07.757Z,94760.38
2022-11-04T04:51:10.960Z,94786.81
2022-11-04T04:56:14.133Z,94795.13
2022-11-04T05:01:17.306Z,94801.63
2022-11-04T05:06:20.486Z,94794.16
2022-11-04T05:11:26.180Z,94788.97
2022-11-04T05:16:30.906Z,94799.25
2022-11-04T05:21:33.992Z,94810.00
2022-11-04T05:26:37.550Z,94782.19
2022-11-04T05:31:40.589Z,94788.34
2022-11-04T05:36:43.640Z,94788.09
2022-11-04T05:41:46.689Z,94803.72
2022-11-04T05:46:49.727Z,94811.28
2022-11-04T05:51:52.769Z,94819.88
2022-11-04T05:56:56.765Z,94809.44
2022-11-04T06:02:00.004Z,94816.53
2022-11-04T06:07:03.368Z,94826.75
2022-11-04T06:12:06.385Z,94819.63
2022-11-04T06:17:09.466Z,94848.31
2022-11-04T06:22:12.578Z,94858.50
2022-11-04T06:27:15.623Z,94857.72
2022-11-04T06:32:18.684Z,94850.75
2022-11-04T06:37:21.971Z,94848.88
2022-11-04T06:42:26.785Z,94863.31
2022-11-04T06:47:29.970Z,94884.94
2022-11-04T06:52:34.889Z,94880.69
2022-11-04T06:57:41.172Z,94877.53
2022-11-04T07:02:44.395Z,94853.97
2022-11-04T07:07:47.610Z,94843.84
2022-11-04T07:12:50.703Z,94850.25
2022-11-04T07:17:53.773Z,94873.53
2022-11-04T07:22:57.011Z,94878.63
2022-11-04T07:28:02.355Z,94890.94
2022-11-04T07:33:05.739Z,94903.72
2022-11-04T07:38:09.103Z,94910.06
2022-11-04T07:43:11.941Z,94907.66
2022-11-04T07:48:14.545Z,94908.97
2022-11-04T07:53:17.170Z,94918.66
2022-11-04T07:58:19.806Z,94939.50
2022-11-04T08:03:22.425Z,94933.06
2022-11-04T08:08:25.041Z,94928.53
2022-11-04T08:13:27.754Z,94898.81
2022-11-04T08:18:30.378Z,94894.28
2022-11-04T08:23:33.081Z,94896.19
2022-11-04T08:28:35.763Z,94875.81
2022-11-04T08:33:39.513Z,94864.59
2022-11-04T08:38:42.418Z,94868.28
2022-11-04T08:43:45.663Z,94872.31
2022-11-04T08:48:49.529Z,94863.38
2022-11-04T08:53:52.676Z,94834.44
2022-11-04T08:58:55.722Z,94825.78
2022-11-04T09:03:58.896Z,94838.22
2022-11-04T09:09:04.537Z,94829.69
2022-11-04T09:14:08.052Z,94823.50
2022-11-04T09:19:11.162Z,94817.09
2022-11-04T09:24:14.370Z,94830.28
2022-11-04T09:29:17.462Z,94829.56
2022-11-04T09:34:20.636Z,94819.94
2022-11-04T09:39:24.042Z,94832.56
2022-11-04T09:44:27.137Z,94845.19
2022-11-04T09:49:30.316Z,94854.28
2022-11-04T09:54:33.523Z,94848.94
2022-11-04T09:59:36.782Z,94844.94
2022-11-04T10:04:39.988Z,94839.59
2022-11-04T10:09:43.066Z,94825.94
2022-11-04T10:14:46.218Z,94813.78
2022-11-04T10:19:49.383Z,94813.97
2022-11-04T10:24:52.467Z,94827.31
2022-11-04T10:29:55.611Z,94816.47
2022-11-04T10:34:58.667Z,94808.09
2022-11-04T10:40:01.764Z,94780.16
2022-11-04T10:45:09.443Z,94765.91
2022-11-04T10:50:29.958Z,94768.03
2022-11-04T10:55:33.590Z,94777.13
2022-11-04T11:00:37.474Z,94780.63
2022-11-04T11:05:40.892Z,94788.06
2022-11-04T11:10:44.188Z,94788.72
2022-11-04T11:15:49.709Z,94795.06
2022-11-04T11:20:52.789Z,94801.72
2022-11-04T11:25:55.950Z,94807.19
2022-11-04T11:30:59.017Z,94809.22
2022-11-04T11:36:02.144Z,94814.84
2022-11-04T11:41:23.772Z,94818.13
2022-11-04T11:46:28.306Z,94816.31
2022-11-04T11:51:32.742Z,94824.16
2022-11-04T11:57:06.875Z,94812.81
2022-11-04T12:02:01.737Z,94801.94
2022-11-04T12:12:30.472Z,94809.25
2022-11-04T12:17:33.637Z,94814.66
2022-11-04T12:22:37.313Z,94798.06
2022-11-04T12:27:40.501Z,94790.56
2022-11-04T12:32:43.655Z,94777.81
2022-11-04T12:37:46.817Z,94760.72
2022-11-04T12:42:49.959Z,94772.91
2022-11-04T12:47:53.181Z,94807.03
2022-11-04T12:52:56.352Z,94837.13
2022-11-04T12:57:59.662Z,94859.84
2022-11-04T13:03:02.972Z,94850.94
2022-11-04T13:08:09.890Z,94854.38
2022-11-04T13:13:17.080Z,94853.13
2022-11-04T13:18:20.452Z,94872.44
2022-11-04T13:23:26.491Z,94881.84
2022-11-04T13:28:29.787Z,94883.78
2022-11-04T13:33:32.501Z,94872.13
2022-11-04T13:38:35.173Z,94886.28
2022-11-04T13:43:41.052Z,94891.88
2022-11-04T13:48:43.849Z,94893.72
2022-11-04T13:53:46.613Z,94896.41
2022-11-04T13:58:49.433Z,94890.50
2022-11-04T14:03:52.810Z,94888.91
2022-11-04T14:08:55.546Z,94885.69
2022-11-04T14:13:58.277Z,94884.59
2022-11-04T14:19:01.572Z,94891.28
2022-11-04T14:24:04.288Z,94887.53
2022-11-04T14:29:17.343Z,94879.75
2022-11-04T14:34:23.442Z,94880.28
2022-11-04T14:39:26.710Z,94889.34
2022-11-04T14:44:29.359Z,94884.75
2022-11-04T14:49:32.009Z,94873.25
2022-11-04T14:54:34.934Z,94867.38
2022-11-04T14:59:37.829Z,94867.94
2022-11-04T15:04:40.511Z,94877.53
2022-11-04T15:09:43.242Z,94875.94
2022-11-04T15:14:45.835Z,94869.00
2022-11-04T15:19:48.470Z,94875.94
2022-11-04T15:24:51.609Z,94883.19
2022-11-04T15:29:54.271Z,94882.16
2022-11-04T15:34:56.893Z,94881.34
2022-11-04T15:39:59.646Z,94886.19
2022-11-04T15:45:02.790Z,94897.94
2022-11-04T15:50:05.449Z,94901.69
2022-11-04T15:55:08.393Z,94903.06
2022-11-04T16:00:11.658Z,94895.56
2022-11-04T16:05:14.259Z,94891.81
2022-11-04T16:10:16.886Z,94888.63
2022-11-04T16:15:19.730Z,94903.34
2022-11-04T16:20:23.541Z,94898.25
2022-11-04T16:25:26.784Z,94892.66
2022-11-04T16:30:29.447Z,94896.41
2022-11-04T16:35:32.131Z,94905.47
2022-11-04T16:40:34.830Z,94912.84
2022-11-04T16:45:38.504Z,94918.16
2022-11-04T16:50:41.933Z,94927.69
2022-11-04T16:55:46.046Z,94936.22
2022-11-04T17:00:49.589Z,94940.41
2022-11-04T17:05:53.945Z,94947.91
2022-11-04T17:10:56.992Z,94958.09
2022-11-04T17:16:00.087Z,94965.56
2022-11-04T17:21:03.225Z,94958.09
2022-11-04T17:26:06.428Z,94976.28
2022-11-04T17:31:09.652Z,94967.47
2022-11-04T17:36:13.307Z,94973.91
2022-11-04T17:41:34.295Z,94968.84
2022-11-04T17:46:41.827Z,94973.63
2022-11-04T17:51:45.072Z,94976.31
2022-11-04T17:56:48.295Z,94976.31
2022-11-04T18:01:51.503Z,94986.44
2022-11-04T18:07:01.418Z,94985.91
2022-11-04T18:12:23.510Z,94986.97
2022-11-04T18:17:26.743Z,95004.06
2022-11-04T18:22:29.887Z,95001.41
2022-11-04T18:27:33.261Z,95005.13
2022-11-04T18:32:36.433Z,95017.66
2022-11-04T18:37:45.764Z,95025.91
2022-11-04T18:42:50.580Z,95028.09
2022-11-04T18:47:53.808Z,95029.94
2022-11-04T18:52:57.652Z,95037.09
2022-11-04T18:58:00.880Z,95032.00
2022-11-04T19:03:04.018Z,95051.69
2022-11-04T19:08:07.420Z,95053.84
2022-11-04T19:13:20.579Z,95061.81
2022-11-04T19:18:23.724Z,95075.09
2022-11-04T19:23:27.952Z,95077.69
2022-11-04T19:28:44.451Z,95085.44
2022-11-04T19:33:50.755Z,95096.09
2022-11-04T19:38:54.287Z,95102.47
2022-11-04T19:43:57.508Z,95108.84
2022-11-04T19:49:00.679Z,95123.50
2022-11-04T19:54:04.524Z,95136.53
2022-11-04T19:59:07.721Z,95134.63
2022-11-04T20:04:10.449Z,95137.22
2022-11-04T20:09:13.124Z,95148.56
2022-11-04T20:14:16.376Z,95152.75
2022-11-04T20:19:22.598Z,95152.72
2022-11-04T20:24:26.167Z,95157.63
2022-11-04T20:29:29.496Z,95165.97
2022-11-04T20:34:34.225Z,95182.19
2022-11-04T20:39:41.563Z,95190.63
2022-11-04T20:44:44.855Z,95197.94
2022-11-04T20:49:48.001Z,95196.81
2022-11-04T20:54:51.791Z,95207.38
2022-11-04T20:59:54.515Z,95211.72
2022-11-04T21:04:57.668Z,95217.47
2022-11-04T21:10:00.528Z,95214.88
2022-11-04T21:15:03.237Z,95215.34
2022-11-04T21:20:10.733Z,95228.09
2022-11-04T21:25:13.416Z,95231.72
2022-11-04T21:30:16.143Z,95234.19
2022-11-04T21:35:18.761Z,95234.34
2022-11-04T21:40:21.458Z,95248.31
2022-11-04T21:45:24.152Z,95243.97
2022-11-04T21:50:27.940Z,95238.69
2022-11-04T21:55:30.663Z,95236.69
2022-11-04T22:00:33.343Z,95221.28
2022-11-04T22:05:36.124Z,95223.50
2022-11-04T22:10:38.834Z,95224.06
2022-11-04T22:16:00.664Z,95223.59
2022-11-04T22:21:03.321Z,95223.84
2022-11-04T22:26:06.045Z,95227.91
2022-11-04T22:31:08.745Z,95235.91
2022-11-04T22:36:11.432Z,95243.47
2022-11-04T22:41:14.085Z,95245.03
2022-11-04T22:46:16.767Z,95245.59
2022-11-04T22:51:19.541Z,95254.72
2022-11-04T22:56:22.206Z,95261.13
2022-11-04T23:01:26.002Z,95260.91
2022-11-04T23:06:29.171Z,95272.91
2022-11-04T23:12:05.339Z,95272.91
2022-11-04T23:17:25.695Z,95260.69
2022-11-04T23:22:45.951Z,95280.69
2022-11-04T23:28:06.488Z,95283.34
2022-11-04T23:33:10.583Z,95283.66
2022-11-04T23:38:13.600Z,95286.06
2022-11-04T23:43:16.238Z,95277.22
2022-11-04T23:48:36.704Z,95281.53
2022-11-04T23:53:57.119Z,95287.19
2022-11-04T23:59:17.412Z,95293.81
